LZB978 LBWN-LBSF

Flight info

Callsign LZB978
Flight time 0h 37m
Altitude 26000
Route DICXA T343 UMPIT
Aircraft A320/M-SDE3FGHIRWY/LB1

Departure

Time 2026-04-28 14:14
Airport Varna Airport (LBWN)

Arrival

Time 2026-04-28 14:51
Airport Sofia Airport (LBSF)
Time Latitude Longitude Altitude Speed Heading
2026-04-28 13:49 43.23607 27.82650 244 ft 0 kts 59°
2026-04-28 14:07 43.23603 27.82640 243 ft 0 kts 59°
2026-04-28 14:07 43.23606 27.82673 245 ft 8 kts 135°
2026-04-28 14:08 43.23554 27.82603 241 ft 16 kts 276°
2026-04-28 14:08 43.23570 27.82449 238 ft 15 kts 276°
2026-04-28 14:08 43.23577 27.82290 235 ft 17 kts 251°
2026-04-28 14:08 43.23486 27.82238 233 ft 14 kts 231°
2026-04-28 14:09 43.23486 27.82092 231 ft 16 kts 276°
2026-04-28 14:09 43.23502 27.81923 228 ft 20 kts 280°
2026-04-28 14:09 43.23518 27.81724 225 ft 20 kts 277°
2026-04-28 14:09 43.23536 27.81523 221 ft 22 kts 276°
2026-04-28 14:10 43.23553 27.81328 217 ft 21 kts 277°
2026-04-28 14:10 43.23573 27.81114 213 ft 22 kts 277°
2026-04-28 14:10 43.23537 27.80937 210 ft 20 kts 211°
2026-04-28 14:10 43.23442 27.80945 210 ft 4 kts 154°
2026-04-28 14:11 43.23435 27.80949 210 ft 0 kts 153°
2026-04-28 14:12 43.23434 27.80950 210 ft 0 kts 153°
2026-04-28 14:12 43.23416 27.80964 210 ft 5 kts 150°
2026-04-28 14:12 43.23370 27.81006 211 ft 10 kts 140°
2026-04-28 14:12 43.23329 27.81098 212 ft 12 kts 108°
2026-04-28 14:13 43.23312 27.81213 214 ft 3 kts 98°
2026-04-28 14:13 43.23312 27.81219 214 ft 0 kts 98°
2026-04-28 14:13 43.23299 27.81351 217 ft 42 kts 96°
2026-04-28 14:13 43.23234 27.82076 229 ft 109 kts 97°
2026-04-28 14:14 43.23114 27.83368 288 ft 158 kts 99°
2026-04-28 14:14 43.22952 27.84854 900 ft 159 kts 99°
2026-04-28 14:14 43.22829 27.86361 1589 ft 163 kts 97°
2026-04-28 14:14 43.22703 27.87894 2232 ft 167 kts 102°
2026-04-28 14:15 43.22090 27.89270 2640 ft 184 kts 146°
2026-04-28 14:15 43.20800 27.89659 3089 ft 201 kts 186°
2026-04-28 14:15 43.19479 27.88908 3517 ft 218 kts 211°
2026-04-28 14:15 43.18118 27.87826 3940 ft 238 kts 208°
2026-04-28 14:16 43.16608 27.86719 4387 ft 258 kts 210°
2026-04-28 14:16 43.15245 27.85065 4941 ft 271 kts 241°
2026-04-28 14:16 43.14740 27.82625 5837 ft 269 kts 266°
2026-04-28 14:16 43.14628 27.80066 6745 ft 271 kts 268°
2026-04-28 14:17 43.14414 27.77512 7655 ft 274 kts 264°
2026-04-28 14:17 43.14143 27.74963 8570 ft 275 kts 264°
2026-04-28 14:17 43.13866 27.72398 9459 ft 276 kts 265°
2026-04-28 14:17 43.13594 27.69820 10329 ft 278 kts 265°
2026-04-28 14:18 43.13320 27.67152 10878 ft 292 kts 265°
2026-04-28 14:18 43.13037 27.64347 11275 ft 309 kts 265°
2026-04-28 14:18 43.12736 27.61363 11647 ft 327 kts 265°
2026-04-28 14:18 43.12417 27.58205 12041 ft 343 kts 264°
2026-04-28 14:19 43.12087 27.54958 12720 ft 348 kts 264°
2026-04-28 14:19 43.11750 27.51650 13481 ft 351 kts 264°
2026-04-28 14:19 43.11412 27.48335 14175 ft 355 kts 264°
2026-04-28 14:19 43.11074 27.45020 14879 ft 358 kts 264°
2026-04-28 14:20 43.10725 27.41624 15616 ft 360 kts 264°
2026-04-28 14:20 43.10378 27.38236 16285 ft 363 kts 264°
2026-04-28 14:20 43.10028 27.34824 16963 ft 366 kts 263°
2026-04-28 14:20 43.09672 27.31371 17606 ft 369 kts 263°
2026-04-28 14:21 43.09314 27.27895 18243 ft 372 kts 263°
2026-04-28 14:21 43.08953 27.24395 18878 ft 374 kts 263°
2026-04-28 14:21 43.08588 27.20877 19465 ft 377 kts 263°
2026-04-28 14:21 43.08217 27.17339 20050 ft 380 kts 264°
2026-04-28 14:22 43.07848 27.13803 20622 ft 382 kts 264°
2026-04-28 14:22 43.07468 27.10178 21188 ft 385 kts 264°
2026-04-28 14:22 43.07085 27.06523 21739 ft 389 kts 264°
2026-04-28 14:22 43.06700 27.02871 22279 ft 392 kts 264°
2026-04-28 14:23 43.06314 26.99217 22800 ft 394 kts 264°
2026-04-28 14:23 43.05920 26.95508 23340 ft 396 kts 264°
2026-04-28 14:23 43.05526 26.91798 23847 ft 398 kts 264°
2026-04-28 14:23 43.05121 26.88006 24341 ft 401 kts 264°
2026-04-28 14:24 43.04720 26.84273 24831 ft 403 kts 264°
2026-04-28 14:24 43.04311 26.80458 25287 ft 406 kts 264°
2026-04-28 14:24 43.03902 26.76678 25702 ft 408 kts 264°
2026-04-28 14:24 43.03487 26.72840 26025 ft 411 kts 264°
2026-04-28 14:25 43.03066 26.68955 26056 ft 411 kts 264°
2026-04-28 14:25 43.02647 26.65105 26067 ft 411 kts 265°
2026-04-28 14:25 43.02232 26.61297 26072 ft 411 kts 264°
2026-04-28 14:25 43.01808 26.57408 26072 ft 411 kts 264°
2026-04-28 14:26 43.01389 26.53584 26070 ft 412 kts 265°
2026-04-28 14:26 43.00962 26.49713 26068 ft 412 kts 264°
2026-04-28 14:26 43.00537 26.45863 26073 ft 411 kts 264°
2026-04-28 14:26 43.00111 26.42025 26067 ft 412 kts 264°
2026-04-28 14:27 42.99683 26.38175 26068 ft 412 kts 264°
2026-04-28 14:27 42.99249 26.34289 26069 ft 412 kts 264°
2026-04-28 14:27 42.98821 26.30467 26069 ft 412 kts 264°
2026-04-28 14:27 42.98385 26.26571 26067 ft 412 kts 264°
2026-04-28 14:28 42.97955 26.22745 26066 ft 411 kts 264°
2026-04-28 14:28 42.97522 26.18910 26064 ft 411 kts 264°
2026-04-28 14:28 42.97082 26.15033 26064 ft 411 kts 264°
2026-04-28 14:28 42.96646 26.11182 26061 ft 411 kts 264°
2026-04-28 14:29 42.96208 26.07348 26061 ft 411 kts 264°
2026-04-28 14:29 42.95769 26.03514 26061 ft 411 kts 264°
2026-04-28 14:29 42.95327 25.99665 26062 ft 412 kts 264°
2026-04-28 14:29 42.94885 25.95826 26061 ft 412 kts 264°
2026-04-28 14:30 42.94439 25.91960 26062 ft 412 kts 264°
2026-04-28 14:30 42.93996 25.88130 26058 ft 413 kts 264°
2026-04-28 14:30 42.93548 25.84269 26058 ft 413 kts 264°
2026-04-28 14:30 42.93098 25.80407 26060 ft 413 kts 264°
2026-04-28 14:31 42.92649 25.76551 26059 ft 413 kts 264°
2026-04-28 14:31 42.92194 25.72671 26059 ft 413 kts 264°
2026-04-28 14:31 42.91741 25.68820 26059 ft 414 kts 264°
2026-04-28 14:31 42.91285 25.64955 26058 ft 413 kts 264°
2026-04-28 14:32 42.90828 25.61102 26057 ft 412 kts 264°
2026-04-28 14:32 42.90374 25.57267 26060 ft 412 kts 264°
2026-04-28 14:32 42.89915 25.53417 26053 ft 413 kts 264°
2026-04-28 14:32 42.89440 25.49534 26054 ft 413 kts 264°
2026-04-28 14:33 42.88966 25.45688 26058 ft 414 kts 264°
2026-04-28 14:33 42.88492 25.41830 26055 ft 414 kts 264°
2026-04-28 14:33 42.88016 25.37947 26055 ft 414 kts 264°
2026-04-28 14:33 42.87615 25.34663 26054 ft 414 kts 264°
2026-04-28 14:34 42.86910 25.28860 26055 ft 414 kts 264°
2026-04-28 14:34 42.86438 25.24985 26058 ft 414 kts 264°
2026-04-28 14:34 42.85965 25.21117 26043 ft 413 kts 264°
2026-04-28 14:35 42.85497 25.17293 25716 ft 408 kts 264°
2026-04-28 14:35 42.85035 25.13511 25038 ft 406 kts 264°
2026-04-28 14:35 42.84571 25.09734 24333 ft 405 kts 264°
2026-04-28 14:35 42.84110 25.05976 23710 ft 401 kts 264°
2026-04-28 14:36 42.83651 25.02259 23137 ft 398 kts 263°
2026-04-28 14:36 42.83190 24.98545 22571 ft 394 kts 263°
2026-04-28 14:36 42.82741 24.94943 22008 ft 390 kts 263°
2026-04-28 14:36 42.82287 24.91306 21450 ft 387 kts 263°
2026-04-28 14:37 42.81840 24.87733 20894 ft 383 kts 263°
2026-04-28 14:37 42.81398 24.84201 20336 ft 380 kts 263°
2026-04-28 14:37 42.80955 24.80678 19756 ft 377 kts 263°
2026-04-28 14:37 42.80518 24.77206 19191 ft 374 kts 263°
2026-04-28 14:38 42.80078 24.73725 18624 ft 371 kts 263°
2026-04-28 14:38 42.79644 24.70295 18055 ft 368 kts 263°
2026-04-28 14:38 42.79292 24.67524 17599 ft 366 kts 263°
2026-04-28 14:38 42.78859 24.64127 17055 ft 362 kts 263°
2026-04-28 14:39 42.78587 24.61987 16702 ft 360 kts 263°
2026-04-28 14:39 42.78162 24.58660 16149 ft 358 kts 263°
2026-04-28 14:39 42.77739 24.55344 15597 ft 355 kts 263°
2026-04-28 14:39 42.77318 24.52063 15037 ft 353 kts 263°
2026-04-28 14:40 42.76903 24.48825 14507 ft 350 kts 263°
2026-04-28 14:40 42.76622 24.46645 14149 ft 348 kts 263°
2026-04-28 14:40 42.76068 24.42350 13407 ft 345 kts 263°
2026-04-28 14:40 42.75653 24.39143 12847 ft 344 kts 263°
2026-04-28 14:41 42.75242 24.35978 12308 ft 341 kts 263°
2026-04-28 14:41 42.74828 24.32796 11649 ft 343 kts 263°
2026-04-28 14:41 42.74413 24.29592 10713 ft 352 kts 262°
2026-04-28 14:41 42.73986 24.26320 9968 ft 354 kts 262°
2026-04-28 14:42 42.73560 24.23057 9401 ft 351 kts 262°
2026-04-28 14:42 42.73138 24.19832 8962 ft 347 kts 262°
2026-04-28 14:42 42.72711 24.16571 8365 ft 352 kts 262°
2026-04-28 14:42 42.72281 24.13294 8065 ft 358 kts 261°
2026-04-28 14:43 42.71840 24.09960 8014 ft 359 kts 261°
2026-04-28 14:43 42.71397 24.06628 8011 ft 360 kts 261°
2026-04-28 14:43 42.70954 24.03290 8013 ft 360 kts 261°
2026-04-28 14:43 42.70503 23.99899 8013 ft 360 kts 261°
2026-04-28 14:44 42.70059 23.96574 8006 ft 360 kts 261°
2026-04-28 14:44 42.69615 23.93250 7841 ft 350 kts 262°
2026-04-28 14:44 42.69191 23.90081 7565 ft 333 kts 262°
2026-04-28 14:44 42.68792 23.87116 7132 ft 313 kts 262°
2026-04-28 14:45 42.68414 23.84302 6669 ft 294 kts 261°
2026-04-28 14:45 42.68039 23.81649 6273 ft 276 kts 258°
2026-04-28 14:45 42.67617 23.79209 6027 ft 256 kts 262°
2026-04-28 14:45 42.67477 23.76899 6005 ft 234 kts 272°
2026-04-28 14:46 42.67592 23.74783 5960 ft 224 kts 278°
2026-04-28 14:46 42.67779 23.72659 5759 ft 229 kts 278°
2026-04-28 14:46 42.67952 23.70504 5452 ft 228 kts 277°
2026-04-28 14:46 42.68093 23.68386 5150 ft 227 kts 277°
2026-04-28 14:47 42.68219 23.66249 4858 ft 226 kts 276°
2026-04-28 14:47 42.68336 23.64145 4571 ft 224 kts 276°
2026-04-28 14:47 42.68454 23.62018 4279 ft 223 kts 277°
2026-04-28 14:47 42.68572 23.59922 3977 ft 221 kts 277°
2026-04-28 14:48 42.68688 23.57889 3683 ft 213 kts 277°
2026-04-28 14:48 42.68800 23.55940 3422 ft 200 kts 277°
2026-04-28 14:48 42.68904 23.54154 3265 ft 181 kts 277°
2026-04-28 14:48 42.69001 23.52502 3001 ft 168 kts 277°
2026-04-28 14:49 42.69088 23.50996 2753 ft 154 kts 277°
2026-04-28 14:49 42.69169 23.49611 2539 ft 139 kts 278°
2026-04-28 14:49 42.69246 23.48330 2374 ft 136 kts 278°
2026-04-28 14:49 42.69322 23.47058 2207 ft 135 kts 279°
2026-04-28 14:50 42.69398 23.45807 2055 ft 134 kts 277°
2026-04-28 14:50 42.69473 23.44548 1871 ft 133 kts 277°
2026-04-28 14:50 42.69545 23.43307 1788 ft 130 kts 276°
2026-04-28 14:50 42.69622 23.42178 1763 ft 101 kts 273°
2026-04-28 14:51 42.69666 23.41421 1763 ft 68 kts 277°
2026-04-28 14:51 42.69664 23.40929 1763 ft 42 kts 257°
2026-04-28 14:51 42.69591 23.40673 1763 ft 18 kts 245°
2026-04-28 14:51 42.69546 23.40553 1763 ft 2 kts 210°
2026-04-28 14:52 42.69526 23.40578 1763 ft 5 kts 108°
2026-04-28 14:52 42.69521 23.40638 1763 ft 8 kts 94°
2026-04-28 14:52 42.69514 23.40732 1763 ft 11 kts 95°
2026-04-28 14:52 42.69507 23.40861 1763 ft 15 kts 94°
2026-04-28 14:53 42.69498 23.41020 1763 ft 18 kts 97°
2026-04-28 14:53 42.69479 23.41181 1763 ft 15 kts 128°
2026-04-28 14:53 42.69372 23.41190 1763 ft 18 kts 194°
2026-04-28 14:53 42.69290 23.41166 1763 ft 19 kts 193°
2026-04-28 14:54 42.69156 23.41173 1764 ft 17 kts 163°
2026-04-28 14:54 42.69075 23.41209 1764 ft 6 kts 162°
2026-04-28 14:54 42.69060 23.41244 1764 ft 5 kts 69°
2026-04-28 14:54 42.69072 23.41289 1764 ft 4 kts 72°
2026-04-28 14:55 42.69074 23.41299 1764 ft 0 kts 72°